sensor_id;sensor_type;location;lat;lon;timestamp;temperature;humidity
9816;DHT22;4947;44.526;11.360;2022-07-29T00:00:10;24.30;99.10
9816;DHT22;4947;44.526;11.360;2022-07-29T00:02:38;24.20;99.50
9816;DHT22;4947;44.526;11.360;2022-07-29T00:05:08;24.20;99.30
9816;DHT22;4947;44.526;11.360;2022-07-29T00:07:39;24.10;99.20
9816;DHT22;4947;44.526;11.360;2022-07-29T00:10:07;24.10;99.40
9816;DHT22;4947;44.526;11.360;2022-07-29T00:12:34;24.20;98.60
9816;DHT22;4947;44.526;11.360;2022-07-29T00:15:03;24.20;97.80
9816;DHT22;4947;44.526;11.360;2022-07-29T00:17:31;24.10;97.70
9816;DHT22;4947;44.526;11.360;2022-07-29T00:19:59;24.20;97.40
9816;DHT22;4947;44.526;11.360;2022-07-29T00:22:28;24.20;97.40
9816;DHT22;4947;44.526;11.360;2022-07-29T00:24:59;24.20;97.20
9816;DHT22;4947;44.526;11.360;2022-07-29T00:27:27;24.30;96.80
9816;DHT22;4947;44.526;11.360;2022-07-29T00:29:54;24.30;96.30
9816;DHT22;4947;44.526;11.360;2022-07-29T00:32:21;24.30;96.30
9816;DHT22;4947;44.526;11.360;2022-07-29T00:34:49;24.30;96.40
9816;DHT22;4947;44.526;11.360;2022-07-29T00:37:35;24.30;96.50
9816;DHT22;4947;44.526;11.360;2022-07-29T00:40:03;24.20;96.60
9816;DHT22;4947;44.526;11.360;2022-07-29T00:42:41;24.20;97.10
9816;DHT22;4947;44.526;11.360;2022-07-29T00:45:09;24.20;97.10
9816;DHT22;4947;44.526;11.360;2022-07-29T00:47:37;24.20;97.20
9816;DHT22;4947;44.526;11.360;2022-07-29T00:50:05;24.10;97.50
9816;DHT22;4947;44.526;11.360;2022-07-29T00:52:37;24.10;97.40
9816;DHT22;4947;44.526;11.360;2022-07-29T00:55:07;24.10;97.40
9816;DHT22;4947;44.526;11.360;2022-07-29T00:57:35;24.10;97.60
9816;DHT22;4947;44.526;11.360;2022-07-29T01:00:03;23.90;97.90
9816;DHT22;4947;44.526;11.360;2022-07-29T01:02:32;24.00;98.00
9816;DHT22;4947;44.526;11.360;2022-07-29T01:05:00;23.90;97.90
9816;DHT22;4947;44.526;11.360;2022-07-29T01:07:29;23.90;98.00
9816;DHT22;4947;44.526;11.360;2022-07-29T01:09:58;23.70;98.60
9816;DHT22;4947;44.526;11.360;2022-07-29T01:12:27;23.70;98.60
9816;DHT22;4947;44.526;11.360;2022-07-29T01:14:59;23.60;98.70
9816;DHT22;4947;44.526;11.360;2022-07-29T01:17:32;23.60;99.10
9816;DHT22;4947;44.526;11.360;2022-07-29T01:20:05;23.40;98.90
9816;DHT22;4947;44.526;11.360;2022-07-29T01:25:57;23.40;98.90
9816;DHT22;4947;44.526;11.360;2022-07-29T01:28:52;23.40;99.00
9816;DHT22;4947;44.526;11.360;2022-07-29T01:31:27;23.40;98.90
9816;DHT22;4947;44.526;11.360;2022-07-29T01:33:58;23.30;99.30
9816;DHT22;4947;44.526;11.360;2022-07-29T01:36:31;23.30;99.30
9816;DHT22;4947;44.526;11.360;2022-07-29T01:39:07;23.30;99.30
9816;DHT22;4947;44.526;11.360;2022-07-29T01:41:40;23.30;99.10
9816;DHT22;4947;44.526;11.360;2022-07-29T01:44:15;23.40;99.30
9816;DHT22;4947;44.526;11.360;2022-07-29T01:46:50;23.40;99.10
9816;DHT22;4947;44.526;11.360;2022-07-29T01:49:22;23.30;99.20
9816;DHT22;4947;44.526;11.360;2022-07-29T01:51:54;23.30;99.50
9816;DHT22;4947;44.526;11.360;2022-07-29T01:54:29;23.20;99.70
9816;DHT22;4947;44.526;11.360;2022-07-29T01:56:59;23.20;99.70
9816;DHT22;4947;44.526;11.360;2022-07-29T01:59:30;23.30;99.50
9816;DHT22;4947;44.526;11.360;2022-07-29T02:02:00;23.30;99.60
9816;DHT22;4947;44.526;11.360;2022-07-29T02:04:29;23.20;99.70
9816;DHT22;4947;44.526;11.360;2022-07-29T02:07:02;23.20;99.90
9816;DHT22;4947;44.526;11.360;2022-07-29T02:09:32;23.10;99.90
9816;DHT22;4947;44.526;11.360;2022-07-29T02:12:02;23.10;99.90
9816;DHT22;4947;44.526;11.360;2022-07-29T02:14:34;23.10;99.90
9816;DHT22;4947;44.526;11.360;2022-07-29T02:17:03;23.10;99.90
9816;DHT22;4947;44.526;11.360;2022-07-29T02:19:32;23.00;99.90
9816;DHT22;4947;44.526;11.360;2022-07-29T02:22:00;23.10;99.90
9816;DHT22;4947;44.526;11.360;2022-07-29T02:24:28;23.10;99.90
9816;DHT22;4947;44.526;11.360;2022-07-29T02:26:59;23.00;99.90
9816;DHT22;4947;44.526;11.360;2022-07-29T02:29:31;22.90;99.90
9816;DHT22;4947;44.526;11.360;2022-07-29T02:32:01;22.90;99.90
9816;DHT22;4947;44.526;11.360;2022-07-29T02:34:31;23.00;99.90
9816;DHT22;4947;44.526;11.360;2022-07-29T02:37:00;22.90;99.90
9816;DHT22;4947;44.526;11.360;2022-07-29T02:39:28;22.90;99.90
9816;DHT22;4947;44.526;11.360;2022-07-29T02:42:01;23.00;99.60
9816;DHT22;4947;44.526;11.360;2022-07-29T02:44:32;23.10;99.00
9816;DHT22;4947;44.526;11.360;2022-07-29T02:47:07;23.10;99.00
9816;DHT22;4947;44.526;11.360;2022-07-29T02:49:41;23.20;98.70
9816;DHT22;4947;44.526;11.360;2022-07-29T02:52:16;23.10;98.60
9816;DHT22;4947;44.526;11.360;2022-07-29T02:54:48;23.00;98.80
9816;DHT22;4947;44.526;11.360;2022-07-29T02:57:21;23.00;98.70
9816;DHT22;4947;44.526;11.360;2022-07-29T02:59:52;23.10;98.40
9816;DHT22;4947;44.526;11.360;2022-07-29T03:02:21;23.00;98.60
9816;DHT22;4947;44.526;11.360;2022-07-29T03:04:50;22.90;98.80
9816;DHT22;4947;44.526;11.360;2022-07-29T03:07:19;22.90;99.00
9816;DHT22;4947;44.526;11.360;2022-07-29T03:09:47;22.80;99.00
9816;DHT22;4947;44.526;11.360;2022-07-29T03:12:16;22.90;98.90
9816;DHT22;4947;44.526;11.360;2022-07-29T03:14:43;22.90;98.30
9816;DHT22;4947;44.526;11.360;2022-07-29T03:17:13;22.90;98.40
9816;DHT22;4947;44.526;11.360;2022-07-29T03:19:42;22.90;98.60
9816;DHT22;4947;44.526;11.360;2022-07-29T03:22:12;22.90;98.50
9816;DHT22;4947;44.526;11.360;2022-07-29T03:24:40;23.00;97.90
9816;DHT22;4947;44.526;11.360;2022-07-29T03:27:08;22.90;97.90
9816;DHT22;4947;44.526;11.360;2022-07-29T03:29:35;22.90;98.00
9816;DHT22;4947;44.526;11.360;2022-07-29T03:32:04;22.90;98.40
9816;DHT22;4947;44.526;11.360;2022-07-29T03:34:35;22.80;98.50
9816;DHT22;4947;44.526;11.360;2022-07-29T03:37:02;22.80;98.70
9816;DHT22;4947;44.526;11.360;2022-07-29T03:39:34;22.70;98.90
9816;DHT22;4947;44.526;11.360;2022-07-29T03:42:03;22.70;99.10
9816;DHT22;4947;44.526;11.360;2022-07-29T03:44:32;22.70;99.20
9816;DHT22;4947;44.526;11.360;2022-07-29T03:47:01;22.70;99.30
9816;DHT22;4947;44.526;11.360;2022-07-29T03:49:29;22.70;99.40
9816;DHT22;4947;44.526;11.360;2022-07-29T03:52:00;22.70;98.80
9816;DHT22;4947;44.526;11.360;2022-07-29T03:54:27;22.70;98.30
9816;DHT22;4947;44.526;11.360;2022-07-29T03:56:56;22.70;98.30
9816;DHT22;4947;44.526;11.360;2022-07-29T03:59:30;22.70;98.00
9816;DHT22;4947;44.526;11.360;2022-07-29T04:02:01;22.80;97.90
9816;DHT22;4947;44.526;11.360;2022-07-29T04:04:32;22.80;98.10
9816;DHT22;4947;44.526;11.360;2022-07-29T04:07:02;22.90;98.00
9816;DHT22;4947;44.526;11.360;2022-07-29T04:09:30;22.90;97.90
9816;DHT22;4947;44.526;11.360;2022-07-29T04:11:57;22.90;98.00
9816;DHT22;4947;44.526;11.360;2022-07-29T04:14:25;23.00;97.80
9816;DHT22;4947;44.526;11.360;2022-07-29T04:16:53;23.00;97.50
9816;DHT22;4947;44.526;11.360;2022-07-29T04:19:20;23.10;96.90
9816;DHT22;4947;44.526;11.360;2022-07-29T04:21:48;23.10;96.70
9816;DHT22;4947;44.526;11.360;2022-07-29T04:24:17;23.10;96.50
9816;DHT22;4947;44.526;11.360;2022-07-29T04:26:45;23.20;96.30
9816;DHT22;4947;44.526;11.360;2022-07-29T04:29:13;23.10;96.60
9816;DHT22;4947;44.526;11.360;2022-07-29T04:31:41;23.10;96.20
9816;DHT22;4947;44.526;11.360;2022-07-29T04:34:09;23.10;96.60
9816;DHT22;4947;44.526;11.360;2022-07-29T04:36:37;23.10;96.80
9816;DHT22;4947;44.526;11.360;2022-07-29T04:39:04;23.10;96.40
9816;DHT22;4947;44.526;11.360;2022-07-29T04:41:33;23.10;96.10
9816;DHT22;4947;44.526;11.360;2022-07-29T04:44:01;23.10;96.40
9816;DHT22;4947;44.526;11.360;2022-07-29T04:46:31;23.20;96.20
9816;DHT22;4947;44.526;11.360;2022-07-29T04:48:58;23.20;96.00
9816;DHT22;4947;44.526;11.360;2022-07-29T04:51:26;23.20;96.10
9816;DHT22;4947;44.526;11.360;2022-07-29T04:53:53;23.20;96.50
9816;DHT22;4947;44.526;11.360;2022-07-29T04:56:20;23.30;96.10
9816;DHT22;4947;44.526;11.360;2022-07-29T04:58:49;23.30;96.00
9816;DHT22;4947;44.526;11.360;2022-07-29T05:01:17;23.30;96.00
9816;DHT22;4947;44.526;11.360;2022-07-29T05:03:45;23.40;96.10
9816;DHT22;4947;44.526;11.360;2022-07-29T05:06:13;23.40;95.90
9816;DHT22;4947;44.526;11.360;2022-07-29T05:08:41;23.50;95.80
9816;DHT22;4947;44.526;11.360;2022-07-29T05:11:08;23.60;95.40
9816;DHT22;4947;44.526;11.360;2022-07-29T05:13:35;23.60;95.50
9816;DHT22;4947;44.526;11.360;2022-07-29T05:16:05;23.70;95.40
9816;DHT22;4947;44.526;11.360;2022-07-29T05:18:33;24.00;94.90
9816;DHT22;4947;44.526;11.360;2022-07-29T05:21:00;24.30;93.40
9816;DHT22;4947;44.526;11.360;2022-07-29T05:23:28;24.60;92.00
9816;DHT22;4947;44.526;11.360;2022-07-29T05:25:55;25.00;90.90
9816;DHT22;4947;44.526;11.360;2022-07-29T05:28:26;25.20;90.00
9816;DHT22;4947;44.526;11.360;2022-07-29T05:30:53;25.60;88.10
9816;DHT22;4947;44.526;11.360;2022-07-29T05:33:23;26.20;85.20
9816;DHT22;4947;44.526;11.360;2022-07-29T05:35:50;26.80;81.10
9816;DHT22;4947;44.526;11.360;2022-07-29T05:38:18;27.10;80.20
9816;DHT22;4947;44.526;11.360;2022-07-29T05:40:45;27.50;78.60
9816;DHT22;4947;44.526;11.360;2022-07-29T05:43:13;27.80;76.70
9816;DHT22;4947;44.526;11.360;2022-07-29T05:45:41;28.20;74.90
9816;DHT22;4947;44.526;11.360;2022-07-29T05:48:09;28.40;73.70
9816;DHT22;4947;44.526;11.360;2022-07-29T05:50:38;28.50;73.10
9816;DHT22;4947;44.526;11.360;2022-07-29T05:53:05;28.40;73.20
9816;DHT22;4947;44.526;11.360;2022-07-29T05:55:35;28.50;72.90
9816;DHT22;4947;44.526;11.360;2022-07-29T05:58:03;28.60;72.50
9816;DHT22;4947;44.526;11.360;2022-07-29T06:00:30;28.90;71.40
9816;DHT22;4947;44.526;11.360;2022-07-29T06:02:57;29.30;70.20
9816;DHT22;4947;44.526;11.360;2022-07-29T06:05:25;29.40;69.20
9816;DHT22;4947;44.526;11.360;2022-07-29T06:07:54;29.40;68.90
9816;DHT22;4947;44.526;11.360;2022-07-29T06:10:22;29.50;68.80
9816;DHT22;4947;44.526;11.360;2022-07-29T06:12:50;29.90;67.70
9816;DHT22;4947;44.526;11.360;2022-07-29T06:15:17;29.80;67.10
9816;DHT22;4947;44.526;11.360;2022-07-29T06:17:45;30.00;67.20
9816;DHT22;4947;44.526;11.360;2022-07-29T06:20:12;30.20;66.40
9816;DHT22;4947;44.526;11.360;2022-07-29T06:22:40;30.30;66.60
9816;DHT22;4947;44.526;11.360;2022-07-29T06:25:09;30.20;66.20
9816;DHT22;4947;44.526;11.360;2022-07-29T06:27:37;31.10;64.20
9816;DHT22;4947;44.526;11.360;2022-07-29T06:30:05;31.10;63.00
9816;DHT22;4947;44.526;11.360;2022-07-29T06:32:35;31.40;62.00
9816;DHT22;4947;44.526;11.360;2022-07-29T06:35:04;31.30;61.80
9816;DHT22;4947;44.526;11.360;2022-07-29T06:37:31;31.50;60.00
9816;DHT22;4947;44.526;11.360;2022-07-29T06:39:59;31.50;59.90
9816;DHT22;4947;44.526;11.360;2022-07-29T06:42:44;31.70;59.60
9816;DHT22;4947;44.526;11.360;2022-07-29T06:45:11;32.20;58.80
9816;DHT22;4947;44.526;11.360;2022-07-29T06:47:39;32.80;57.50
9816;DHT22;4947;44.526;11.360;2022-07-29T06:50:07;33.10;56.80
9816;DHT22;4947;44.526;11.360;2022-07-29T06:52:37;32.50;56.90
9816;DHT22;4947;44.526;11.360;2022-07-29T06:55:05;32.30;57.50
9816;DHT22;4947;44.526;11.360;2022-07-29T06:57:33;32.50;56.90
9816;DHT22;4947;44.526;11.360;2022-07-29T07:00:03;32.80;56.40
9816;DHT22;4947;44.526;11.360;2022-07-29T07:02:31;33.30;56.10
9816;DHT22;4947;44.526;11.360;2022-07-29T07:04:59;33.20;56.10
9816;DHT22;4947;44.526;11.360;2022-07-29T07:07:26;33.50;55.20
9816;DHT22;4947;44.526;11.360;2022-07-29T07:09:54;33.20;55.00
9816;DHT22;4947;44.526;11.360;2022-07-29T07:12:21;33.40;55.10
9816;DHT22;4947;44.526;11.360;2022-07-29T07:14:49;34.00;54.20
9816;DHT22;4947;44.526;11.360;2022-07-29T07:17:18;33.80;54.20
9816;DHT22;4947;44.526;11.360;2022-07-29T07:19:46;34.50;53.40
9816;DHT22;4947;44.526;11.360;2022-07-29T07:22:13;34.80;52.40
9816;DHT22;4947;44.526;11.360;2022-07-29T07:24:41;34.30;52.60
9816;DHT22;4947;44.526;11.360;2022-07-29T07:27:09;34.30;52.70
9816;DHT22;4947;44.526;11.360;2022-07-29T07:29:36;34.20;52.90
9816;DHT22;4947;44.526;11.360;2022-07-29T07:32:06;33.90;53.00
9816;DHT22;4947;44.526;11.360;2022-07-29T07:34:35;34.00;53.00
9816;DHT22;4947;44.526;11.360;2022-07-29T07:37:03;33.80;53.00
9816;DHT22;4947;44.526;11.360;2022-07-29T07:39:30;34.00;53.50
9816;DHT22;4947;44.526;11.360;2022-07-29T07:41:58;34.10;52.80
9816;DHT22;4947;44.526;11.360;2022-07-29T07:44:25;34.30;52.60
9816;DHT22;4947;44.526;11.360;2022-07-29T07:46:53;34.20;52.80
9816;DHT22;4947;44.526;11.360;2022-07-29T07:49:20;34.20;52.40
9816;DHT22;4947;44.526;11.360;2022-07-29T07:51:50;34.40;52.50
9816;DHT22;4947;44.526;11.360;2022-07-29T07:54:18;33.90;53.10
9816;DHT22;4947;44.526;11.360;2022-07-29T07:56:45;34.10;53.10
9816;DHT22;4947;44.526;11.360;2022-07-29T07:59:14;34.30;53.10
9816;DHT22;4947;44.526;11.360;2022-07-29T08:01:42;34.60;52.60
9816;DHT22;4947;44.526;11.360;2022-07-29T08:04:10;34.60;52.50
9816;DHT22;4947;44.526;11.360;2022-07-29T08:06:37;34.70;52.40
9816;DHT22;4947;44.526;11.360;2022-07-29T08:09:06;34.90;51.70
9816;DHT22;4947;44.526;11.360;2022-07-29T08:11:34;36.00;50.30
9816;DHT22;4947;44.526;11.360;2022-07-29T08:14:01;36.00;49.90
9816;DHT22;4947;44.526;11.360;2022-07-29T08:16:29;36.30;49.50
9816;DHT22;4947;44.526;11.360;2022-07-29T08:18:56;36.50;49.00
9816;DHT22;4947;44.526;11.360;2022-07-29T08:21:24;36.50;48.90
9816;DHT22;4947;44.526;11.360;2022-07-29T08:23:51;36.50;48.80
9816;DHT22;4947;44.526;11.360;2022-07-29T08:26:41;36.30;49.10
9816;DHT22;4947;44.526;11.360;2022-07-29T08:29:09;36.90;48.70
9816;DHT22;4947;44.526;11.360;2022-07-29T08:31:37;37.20;48.00
9816;DHT22;4947;44.526;11.360;2022-07-29T08:34:06;37.50;47.40
9816;DHT22;4947;44.526;11.360;2022-07-29T08:36:36;37.10;47.70
9816;DHT22;4947;44.526;11.360;2022-07-29T08:39:04;37.80;46.80
9816;DHT22;4947;44.526;11.360;2022-07-29T08:41:31;38.00;45.80
9816;DHT22;4947;44.526;11.360;2022-07-29T08:44:00;37.90;46.20
9816;DHT22;4947;44.526;11.360;2022-07-29T08:46:28;37.70;46.70
9816;DHT22;4947;44.526;11.360;2022-07-29T08:48:55;38.00;46.60
9816;DHT22;4947;44.526;11.360;2022-07-29T08:51:23;37.90;46.60
9816;DHT22;4947;44.526;11.360;2022-07-29T08:53:53;38.10;46.10
9816;DHT22;4947;44.526;11.360;2022-07-29T08:56:22;37.70;47.20
9816;DHT22;4947;44.526;11.360;2022-07-29T08:58:50;37.40;47.30
9816;DHT22;4947;44.526;11.360;2022-07-29T09:01:22;37.30;47.50
9816;DHT22;4947;44.526;11.360;2022-07-29T09:03:50;37.70;47.10
9816;DHT22;4947;44.526;11.360;2022-07-29T09:06:22;38.00;47.10
9816;DHT22;4947;44.526;11.360;2022-07-29T09:08:54;38.10;46.40
9816;DHT22;4947;44.526;11.360;2022-07-29T09:11:25;38.00;46.00
9816;DHT22;4947;44.526;11.360;2022-07-29T09:13:52;38.10;46.50
9816;DHT22;4947;44.526;11.360;2022-07-29T09:16:21;38.10;46.30
9816;DHT22;4947;44.526;11.360;2022-07-29T09:18:49;38.40;45.70
9816;DHT22;4947;44.526;11.360;2022-07-29T09:21:17;38.10;45.40
9816;DHT22;4947;44.526;11.360;2022-07-29T09:24:05;37.50;45.60
9816;DHT22;4947;44.526;11.360;2022-07-29T09:26:40;38.40;45.80
9816;DHT22;4947;44.526;11.360;2022-07-29T09:29:09;38.20;45.60
9816;DHT22;4947;44.526;11.360;2022-07-29T09:31:40;37.90;45.80
9816;DHT22;4947;44.526;11.360;2022-07-29T09:34:09;38.80;44.80
9816;DHT22;4947;44.526;11.360;2022-07-29T09:36:40;38.00;44.60
9816;DHT22;4947;44.526;11.360;2022-07-29T09:39:08;38.30;44.40
9816;DHT22;4947;44.526;11.360;2022-07-29T09:41:47;38.60;43.80
9816;DHT22;4947;44.526;11.360;2022-07-29T09:44:16;38.30;44.50
9816;DHT22;4947;44.526;11.360;2022-07-29T09:47:06;38.90;43.70
9816;DHT22;4947;44.526;11.360;2022-07-29T09:49:34;38.70;42.50
9816;DHT22;4947;44.526;11.360;2022-07-29T09:52:07;38.30;44.10
9816;DHT22;4947;44.526;11.360;2022-07-29T09:54:35;37.80;43.90
9816;DHT22;4947;44.526;11.360;2022-07-29T09:57:07;37.20;44.80
9816;DHT22;4947;44.526;11.360;2022-07-29T09:59:38;36.90;45.40
9816;DHT22;4947;44.526;11.360;2022-07-29T10:02:13;36.50;45.50
9816;DHT22;4947;44.526;11.360;2022-07-29T10:04:41;36.40;45.50
9816;DHT22;4947;44.526;11.360;2022-07-29T10:07:09;36.30;45.20
9816;DHT22;4947;44.526;11.360;2022-07-29T10:09:37;36.10;45.60
9816;DHT22;4947;44.526;11.360;2022-07-29T10:12:06;35.40;46.00
9816;DHT22;4947;44.526;11.360;2022-07-29T10:14:35;35.30;47.50
9816;DHT22;4947;44.526;11.360;2022-07-29T10:17:03;35.60;46.40
9816;DHT22;4947;44.526;11.360;2022-07-29T10:19:34;35.20;47.60
9816;DHT22;4947;44.526;11.360;2022-07-29T10:22:04;35.10;47.50
9816;DHT22;4947;44.526;11.360;2022-07-29T10:24:32;34.60;48.10
9816;DHT22;4947;44.526;11.360;2022-07-29T10:27:01;34.10;48.50
9816;DHT22;4947;44.526;11.360;2022-07-29T10:29:29;34.30;48.70
9816;DHT22;4947;44.526;11.360;2022-07-29T10:32:09;34.40;48.60
9816;DHT22;4947;44.526;11.360;2022-07-29T10:34:57;34.60;48.50
9816;DHT22;4947;44.526;11.360;2022-07-29T10:37:36;34.80;48.10
9816;DHT22;4947;44.526;11.360;2022-07-29T10:40:15;34.80;48.00
9816;DHT22;4947;44.526;11.360;2022-07-29T10:43:07;34.90;48.00
9816;DHT22;4947;44.526;11.360;2022-07-29T10:45:42;34.80;47.90
9816;DHT22;4947;44.526;11.360;2022-07-29T10:48:13;34.80;48.00
9816;DHT22;4947;44.526;11.360;2022-07-29T10:50:56;35.00;47.60
9816;DHT22;4947;44.526;11.360;2022-07-29T10:53:25;34.60;47.50
9816;DHT22;4947;44.526;11.360;2022-07-29T10:56:23;34.20;48.20
9816;DHT22;4947;44.526;11.360;2022-07-29T10:59:24;34.10;49.10
9816;DHT22;4947;44.526;11.360;2022-07-29T11:01:53;34.50;48.00
9816;DHT22;4947;44.526;11.360;2022-07-29T11:07:25;34.30;47.10
9816;DHT22;4947;44.526;11.360;2022-07-29T11:10:25;34.40;47.80
9816;DHT22;4947;44.526;11.360;2022-07-29T11:12:52;34.60;49.20
9816;DHT22;4947;44.526;11.360;2022-07-29T11:15:21;34.40;47.20
9816;DHT22;4947;44.526;11.360;2022-07-29T11:18:05;34.10;47.90
9816;DHT22;4947;44.526;11.360;2022-07-29T11:20:37;34.00;47.90
9816;DHT22;4947;44.526;11.360;2022-07-29T11:23:23;33.90;47.40
9816;DHT22;4947;44.526;11.360;2022-07-29T11:26:13;33.90;47.50
9816;DHT22;4947;44.526;11.360;2022-07-29T11:28:53;33.70;46.90
9816;DHT22;4947;44.526;11.360;2022-07-29T11:31:33;33.90;47.50
9816;DHT22;4947;44.526;11.360;2022-07-29T11:34:20;34.10;48.10
9816;DHT22;4947;44.526;11.360;2022-07-29T11:37:16;34.20;49.00
9816;DHT22;4947;44.526;11.360;2022-07-29T11:39:46;34.20;47.90
9816;DHT22;4947;44.526;11.360;2022-07-29T11:42:42;34.20;48.70
9816;DHT22;4947;44.526;11.360;2022-07-29T11:45:12;34.40;48.00
9816;DHT22;4947;44.526;11.360;2022-07-29T11:47:41;34.00;46.80
9816;DHT22;4947;44.526;11.360;2022-07-29T11:50:12;33.80;47.30
9816;DHT22;4947;44.526;11.360;2022-07-29T11:52:40;33.80;46.80
9816;DHT22;4947;44.526;11.360;2022-07-29T11:55:14;33.90;48.00
9816;DHT22;4947;44.526;11.360;2022-07-29T11:57:47;33.80;47.20
9816;DHT22;4947;44.526;11.360;2022-07-29T12:00:26;34.00;46.90
9816;DHT22;4947;44.526;11.360;2022-07-29T12:02:54;34.20;47.00
9816;DHT22;4947;44.526;11.360;2022-07-29T12:05:34;34.40;46.50
9816;DHT22;4947;44.526;11.360;2022-07-29T12:08:11;34.40;46.20
9816;DHT22;4947;44.526;11.360;2022-07-29T12:10:40;34.20;46.30
9816;DHT22;4947;44.526;11.360;2022-07-29T12:13:09;34.30;46.30
9816;DHT22;4947;44.526;11.360;2022-07-29T12:15:36;34.20;45.90
9816;DHT22;4947;44.526;11.360;2022-07-29T12:18:15;34.20;46.50
9816;DHT22;4947;44.526;11.360;2022-07-29T12:20:43;34.40;46.80
9816;DHT22;4947;44.526;11.360;2022-07-29T12:23:11;34.40;45.70
9816;DHT22;4947;44.526;11.360;2022-07-29T12:25:42;34.10;46.80
9816;DHT22;4947;44.526;11.360;2022-07-29T12:28:11;34.00;46.70
9816;DHT22;4947;44.526;11.360;2022-07-29T12:30:42;34.10;47.20
9816;DHT22;4947;44.526;11.360;2022-07-29T12:33:17;34.10;47.40
9816;DHT22;4947;44.526;11.360;2022-07-29T12:35:47;34.30;47.80
9816;DHT22;4947;44.526;11.360;2022-07-29T12:38:19;34.50;46.90
9816;DHT22;4947;44.526;11.360;2022-07-29T12:40:49;34.50;46.80
9816;DHT22;4947;44.526;11.360;2022-07-29T12:43:17;34.60;46.40
9816;DHT22;4947;44.526;11.360;2022-07-29T12:45:47;34.60;46.30
9816;DHT22;4947;44.526;11.360;2022-07-29T12:48:15;34.60;46.40
9816;DHT22;4947;44.526;11.360;2022-07-29T12:50:57;34.60;46.80
9816;DHT22;4947;44.526;11.360;2022-07-29T12:53:25;34.50;46.50
9816;DHT22;4947;44.526;11.360;2022-07-29T12:55:55;34.30;47.50
9816;DHT22;4947;44.526;11.360;2022-07-29T12:58:30;34.00;47.70
9816;DHT22;4947;44.526;11.360;2022-07-29T13:01:03;33.80;48.10
9816;DHT22;4947;44.526;11.360;2022-07-29T13:03:43;33.70;48.50
9816;DHT22;4947;44.526;11.360;2022-07-29T13:09:14;34.00;48.60
9816;DHT22;4947;44.526;11.360;2022-07-29T13:11:48;34.20;48.60
9816;DHT22;4947;44.526;11.360;2022-07-29T13:14:30;34.30;47.80
9816;DHT22;4947;44.526;11.360;2022-07-29T13:17:04;34.30;48.00
9816;DHT22;4947;44.526;11.360;2022-07-29T13:19:37;34.10;48.10
9816;DHT22;4947;44.526;11.360;2022-07-29T13:22:05;34.10;49.20
9816;DHT22;4947;44.526;11.360;2022-07-29T13:24:44;34.30;49.30
9816;DHT22;4947;44.526;11.360;2022-07-29T13:27:16;34.30;49.30
9816;DHT22;4947;44.526;11.360;2022-07-29T13:29:44;34.40;49.10
9816;DHT22;4947;44.526;11.360;2022-07-29T13:32:12;34.40;49.20
9816;DHT22;4947;44.526;11.360;2022-07-29T13:34:39;34.30;49.80
9816;DHT22;4947;44.526;11.360;2022-07-29T13:37:07;34.20;49.10
9816;DHT22;4947;44.526;11.360;2022-07-29T13:39:35;34.10;49.40
9816;DHT22;4947;44.526;11.360;2022-07-29T13:42:03;34.00;50.00
9816;DHT22;4947;44.526;11.360;2022-07-29T13:44:32;34.00;49.50
9816;DHT22;4947;44.526;11.360;2022-07-29T13:46:59;33.90;50.70
9816;DHT22;4947;44.526;11.360;2022-07-29T13:49:27;33.70;50.40
9816;DHT22;4947;44.526;11.360;2022-07-29T13:51:54;33.60;50.20
9816;DHT22;4947;44.526;11.360;2022-07-29T13:54:22;33.60;50.50
9816;DHT22;4947;44.526;11.360;2022-07-29T13:56:50;33.60;50.90
9816;DHT22;4947;44.526;11.360;2022-07-29T13:59:18;33.60;50.40
9816;DHT22;4947;44.526;11.360;2022-07-29T14:01:47;33.80;50.00
9816;DHT22;4947;44.526;11.360;2022-07-29T14:04:15;34.00;50.30
9816;DHT22;4947;44.526;11.360;2022-07-29T14:06:42;34.10;49.60
9816;DHT22;4947;44.526;11.360;2022-07-29T14:09:10;34.20;49.60
9816;DHT22;4947;44.526;11.360;2022-07-29T14:11:38;34.20;50.30
9816;DHT22;4947;44.526;11.360;2022-07-29T14:14:05;34.20;49.70
9816;DHT22;4947;44.526;11.360;2022-07-29T14:16:33;34.40;50.10
9816;DHT22;4947;44.526;11.360;2022-07-29T14:19:02;34.40;49.80
9816;DHT22;4947;44.526;11.360;2022-07-29T14:21:30;34.50;50.30
9816;DHT22;4947;44.526;11.360;2022-07-29T14:23:57;34.70;49.40
9816;DHT22;4947;44.526;11.360;2022-07-29T14:26:25;34.50;49.30
9816;DHT22;4947;44.526;11.360;2022-07-29T14:28:53;34.40;49.70
9816;DHT22;4947;44.526;11.360;2022-07-29T14:31:21;34.20;49.90
9816;DHT22;4947;44.526;11.360;2022-07-29T14:33:49;34.00;50.10
9816;DHT22;4947;44.526;11.360;2022-07-29T14:36:18;33.70;50.60
9816;DHT22;4947;44.526;11.360;2022-07-29T14:38:46;33.60;50.80
9816;DHT22;4947;44.526;11.360;2022-07-29T14:41:13;33.50;52.00
9816;DHT22;4947;44.526;11.360;2022-07-29T14:43:41;33.40;52.50
9816;DHT22;4947;44.526;11.360;2022-07-29T14:46:09;33.40;53.70
9816;DHT22;4947;44.526;11.360;2022-07-29T14:48:36;33.30;53.70
9816;DHT22;4947;44.526;11.360;2022-07-29T14:51:04;33.30;54.10
9816;DHT22;4947;44.526;11.360;2022-07-29T14:53:34;33.40;54.00
9816;DHT22;4947;44.526;11.360;2022-07-29T14:56:01;33.30;52.60
9816;DHT22;4947;44.526;11.360;2022-07-29T14:58:29;33.20;52.60
9816;DHT22;4947;44.526;11.360;2022-07-29T15:00:57;33.20;51.60
9816;DHT22;4947;44.526;11.360;2022-07-29T15:03:24;33.20;51.80
9816;DHT22;4947;44.526;11.360;2022-07-29T15:05:52;33.10;51.70
9816;DHT22;4947;44.526;11.360;2022-07-29T15:08:20;32.90;51.80
9816;DHT22;4947;44.526;11.360;2022-07-29T15:10:50;32.90;52.00
9816;DHT22;4947;44.526;11.360;2022-07-29T15:13:17;32.80;52.20
9816;DHT22;4947;44.526;11.360;2022-07-29T15:15:45;32.60;54.00
9816;DHT22;4947;44.526;11.360;2022-07-29T15:18:12;32.60;56.70
9816;DHT22;4947;44.526;11.360;2022-07-29T15:20:40;32.20;62.10
9816;DHT22;4947;44.526;11.360;2022-07-29T15:23:07;31.30;68.40
9816;DHT22;4947;44.526;11.360;2022-07-29T15:25:35;30.30;74.70
9816;DHT22;4947;44.526;11.360;2022-07-29T15:28:05;29.50;90.00
9816;DHT22;4947;44.526;11.360;2022-07-29T15:30:34;28.80;90.10
9816;DHT22;4947;44.526;11.360;2022-07-29T15:33:06;28.40;90.40
9816;DHT22;4947;44.526;11.360;2022-07-29T15:35:35;28.10;90.90
9816;DHT22;4947;44.526;11.360;2022-07-29T15:38:03;27.90;95.80
9816;DHT22;4947;44.526;11.360;2022-07-29T15:40:31;28.00;92.40
9816;DHT22;4947;44.526;11.360;2022-07-29T15:42:58;28.10;91.40
9816;DHT22;4947;44.526;11.360;2022-07-29T15:45:35;28.20;90.00
9816;DHT22;4947;44.526;11.360;2022-07-29T15:48:04;28.30;90.00
9816;DHT22;4947;44.526;11.360;2022-07-29T15:50:32;28.40;88.00
9816;DHT22;4947;44.526;11.360;2022-07-29T15:53:01;28.80;88.10
9816;DHT22;4947;44.526;11.360;2022-07-29T15:55:29;29.00;83.70
9816;DHT22;4947;44.526;11.360;2022-07-29T15:57:57;29.20;84.30
9816;DHT22;4947;44.526;11.360;2022-07-29T16:00:24;29.40;79.90
9816;DHT22;4947;44.526;11.360;2022-07-29T16:02:53;29.50;78.90
9816;DHT22;4947;44.526;11.360;2022-07-29T16:05:20;29.50;83.00
9816;DHT22;4947;44.526;11.360;2022-07-29T16:07:48;29.50;81.40
9816;DHT22;4947;44.526;11.360;2022-07-29T16:10:16;29.70;81.70
9816;DHT22;4947;44.526;11.360;2022-07-29T16:12:43;29.80;80.00